Time;durP1;ratioP1;P1;durP2;ratioP2;P2;SDS_P1;SDS_P2;PMS_P1;PMS_P2;Temp;Humidity;BMP_temperature;BMP_pressure;BME280_temperature;BME280_humidity;BME280_pressure;Samples;Min_cycle;Max_cycle;Signal;HPM_P1;HPM_P2
2023/01/08 00:00:45;;;;;;;7.10;5.50;;;3.70;99.90;;;;;;5053719;28;20167;-87
2023/01/08 00:03:11;;;;;;;8.93;6.27;;;3.70;99.90;;;;;;5057237;28;20193;-86
2023/01/08 00:05:37;;;;;;;8.30;5.57;;;3.70;99.90;;;;;;5058617;28;20175;-87
2023/01/08 00:08:04;;;;;;;9.77;6.63;;;3.70;99.90;;;;;;5066531;28;20175;-87
2023/01/08 00:10:30;;;;;;;9.00;6.87;;;3.80;99.90;;;;;;5059261;28;20673;-87
2023/01/08 00:12:56;;;;;;;8.80;6.90;;;3.80;99.90;;;;;;5049668;28;20182;-86
2023/01/08 00:15:22;;;;;;;12.23;7.90;;;3.90;99.90;;;;;;5068113;28;20236;-87
2023/01/08 00:17:48;;;;;;;11.90;8.67;;;3.80;99.90;;;;;;5060226;28;20169;-87
2023/01/08 00:20:14;;;;;;;15.43;10.10;;;3.80;99.90;;;;;;5060054;28;20749;-87
2023/01/08 00:22:40;;;;;;;15.90;10.63;;;3.70;99.90;;;;;;5065713;28;20179;-88
2023/01/08 00:25:06;;;;;;;15.80;11.10;;;3.50;99.90;;;;;;5066287;28;20248;-88
2023/01/08 00:27:32;;;;;;;17.73;11.67;;;3.50;99.90;;;;;;5060506;28;20198;-86
2023/01/08 00:29:58;;;;;;;14.97;10.73;;;3.40;99.90;;;;;;5041917;28;20646;-86
2023/01/08 00:32:23;;;;;;;14.10;10.57;;;3.40;99.90;;;;;;5042229;28;20209;-86
2023/01/08 00:34:49;;;;;;;16.00;11.83;;;3.30;99.90;;;;;;5044960;28;20179;-88
2023/01/08 00:37:18;;;;;;;17.50;11.57;;;3.20;99.90;;;;;;5055373;28;20249;-87
2023/01/08 00:39:45;;;;;;;13.10;10.33;;;3.10;99.90;;;;;;5077109;28;20167;-84
2023/01/08 00:42:11;;;;;;;14.23;10.60;;;3.10;99.90;;;;;;5101755;28;20215;-86
2023/01/08 00:44:37;;;;;;;14.90;10.33;;;3.10;99.90;;;;;;5080597;28;20193;-85
2023/01/08 00:47:03;;;;;;;16.00;10.43;;;3.00;99.90;;;;;;5086504;28;20173;-84
2023/01/08 00:49:29;;;;;;;14.77;10.87;;;2.90;99.90;;;;;;5093461;28;20708;-84
2023/01/08 00:51:55;;;;;;;14.87;10.83;;;2.90;99.90;;;;;;5063136;28;20245;-87
2023/01/08 00:54:21;;;;;;;12.77;10.27;;;2.90;99.90;;;;;;5036980;28;20191;-87
2023/01/08 00:56:46;;;;;;;12.23;9.50;;;2.90;99.90;;;;;;5024885;28;20196;-86
2023/01/08 00:59:12;;;;;;;10.47;8.57;;;2.70;99.90;;;;;;5057220;28;20171;-86
2023/01/08 01:01:38;;;;;;;10.40;8.50;;;2.60;99.90;;;;;;5035145;28;20198;-85
2023/01/08 01:04:04;;;;;;;10.53;8.90;;;2.60;99.90;;;;;;5041620;28;20171;-86
2023/01/08 01:06:30;;;;;;;12.57;9.70;;;2.60;99.90;;;;;;5051292;28;20180;-86
2023/01/08 01:08:56;;;;;;;13.70;9.87;;;2.50;99.90;;;;;;5038546;28;20516;-85
2023/01/08 01:11:25;;;;;;;11.53;8.77;;;2.50;99.90;;;;;;5047967;28;20207;-81
2023/01/08 01:13:52;;;;;;;11.70;8.50;;;2.50;99.90;;;;;;5077245;28;20174;-85
2023/01/08 01:16:18;;;;;;;11.00;8.83;;;2.50;99.90;;;;;;5023359;28;20204;-86
2023/01/08 01:18:44;;;;;;;13.13;9.83;;;2.40;99.90;;;;;;5023028;28;20184;-85
2023/01/08 01:21:30;;;;;;;12.60;9.43;;;2.30;99.90;;;;;;5003586;28;20183;-87
2023/01/08 01:23:58;;;;;;;12.73;9.73;;;2.30;99.90;;;;;;5019798;28;20165;-87
2023/01/08 01:26:25;;;;;;;10.73;8.87;;;2.40;99.90;;;;;;5033550;28;20584;-85
2023/01/08 01:28:53;;;;;;;11.73;9.73;;;2.40;99.90;;;;;;5018874;28;20182;-87
2023/01/08 01:31:20;;;;;;;11.57;8.83;;;2.40;99.90;;;;;;5036230;28;20620;-85
2023/01/08 01:33:46;;;;;;;11.80;9.70;;;2.40;99.90;;;;;;5018596;28;20653;-86
2023/01/08 01:36:13;;;;;;;12.83;9.17;;;2.30;99.90;;;;;;5036479;28;20182;-85
2023/01/08 01:38:47;;;;;;;13.13;9.17;;;2.30;99.90;;;;;;5018384;28;20637;-86
2023/01/08 01:41:23;;;;;;;14.33;10.17;;;2.20;99.90;;;;;;5036723;28;20194;-87
2023/01/08 01:43:49;;;;;;;13.50;10.00;;;2.30;99.90;;;;;;5037977;28;20654;-84
2023/01/08 01:46:29;;;;;;;14.67;9.83;;;2.20;99.90;;;;;;5062432;28;20181;-87
2023/01/08 01:48:59;;;;;;;14.07;9.53;;;2.20;99.90;;;;;;5056843;28;20167;-85
2023/01/08 01:51:30;;;;;;;11.30;7.97;;;2.20;99.90;;;;;;5041260;28;20206;-84
2023/01/08 01:53:56;;;;;;;14.23;8.53;;;2.30;99.90;;;;;;5041989;28;20168;-85
2023/01/08 01:56:22;;;;;;;12.47;7.50;;;2.10;99.90;;;;;;5059944;28;20170;-85
2023/01/08 01:58:48;;;;;;;12.20;8.13;;;2.10;99.90;;;;;;5057087;28;20167;-84
2023/01/08 02:01:14;;;;;;;10.17;7.20;;;2.10;99.90;;;;;;5057227;28;20212;-87
2023/01/08 02:03:40;;;;;;;10.43;7.80;;;2.10;99.90;;;;;;5055504;28;20633;-84
2023/01/08 02:06:16;;;;;;;8.93;7.33;;;2.10;99.90;;;;;;5037927;28;20228;-88
2023/01/08 02:09:04;;;;;;;11.10;7.00;;;2.20;99.90;;;;;;5056368;28;20619;-87
2023/01/08 02:11:39;;;;;;;7.70;6.83;;;2.20;99.90;;;;;;5034655;28;20219;-89
2023/01/08 02:14:31;;;;;;;7.83;6.57;;;2.10;99.90;;;;;;5019935;28;20178;-88
2023/01/08 02:17:07;;;;;;;9.57;6.80;;;2.00;99.90;;;;;;5037674;28;20255;-86
2023/01/08 02:19:59;;;;;;;10.60;6.73;;;2.10;99.90;;;;;;5062592;28;20175;-86
2023/01/08 02:22:43;;;;;;;8.40;6.40;;;2.20;99.90;;;;;;5060009;28;20924;-87
2023/01/08 02:25:24;;;;;;;8.00;6.20;;;2.20;99.90;;;;;;5055726;28;20168;-86
2023/01/08 02:27:51;;;;;;;10.33;7.17;;;2.20;99.90;;;;;;5060371;28;20253;-87
2023/01/08 02:30:18;;;;;;;6.10;5.50;;;2.20;99.90;;;;;;5040648;28;20671;-88
2023/01/08 02:32:44;;;;;;;8.20;5.90;;;2.30;99.90;;;;;;5041717;28;20238;-86
2023/01/08 02:35:11;;;;;;;7.43;6.17;;;2.20;99.90;;;;;;5056026;28;20170;-89
2023/01/08 02:37:37;;;;;;;8.43;6.50;;;2.20;99.90;;;;;;5047961;28;20175;-88
2023/01/08 02:40:18;;;;;;;7.87;6.07;;;2.20;99.90;;;;;;5057516;28;20262;-89
2023/01/08 02:43:04;;;;;;;8.87;6.17;;;2.20;99.90;;;;;;5055944;28;20804;-87
2023/01/08 02:45:49;;;;;;;8.73;6.43;;;2.20;99.90;;;;;;5055868;28;20217;-88
2023/01/08 02:48:28;;;;;;;8.03;5.87;;;2.20;99.90;;;;;;5055764;28;20188;-86
2023/01/08 02:51:19;;;;;;;9.03;6.50;;;2.20;99.90;;;;;;5056746;28;20221;-88
2023/01/08 02:53:49;;;;;;;8.90;7.57;;;2.10;99.90;;;;;;5066998;28;20170;-87
2023/01/08 02:56:22;;;;;;;10.93;6.83;;;2.10;99.90;;;;;;5062311;28;20177;-88
2023/01/08 02:58:51;;;;;;;9.53;7.50;;;2.00;99.90;;;;;;5057954;28;20612;-88
2023/01/08 03:01:22;;;;;;;9.47;7.37;;;2.10;99.90;;;;;;5078252;28;20164;-86
2023/01/08 03:03:56;;;;;;;9.03;7.20;;;2.10;99.90;;;;;;5069990;28;20225;-87
2023/01/08 03:06:23;;;;;;;10.40;8.03;;;2.10;99.90;;;;;;5063735;28;20173;-87
2023/01/08 03:08:52;;;;;;;8.97;7.23;;;2.00;99.90;;;;;;5067553;28;20175;-87
2023/01/08 03:11:21;;;;;;;12.07;7.77;;;2.10;99.90;;;;;;5039806;28;20547;-86
2023/01/08 03:13:50;;;;;;;9.40;7.57;;;2.00;99.90;;;;;;5069179;28;20195;-89
2023/01/08 03:16:34;;;;;;;9.13;7.77;;;2.10;99.90;;;;;;5061799;28;20358;-89
2023/01/08 03:19:18;;;;;;;9.87;7.57;;;2.10;99.90;;;;;;5054906;28;20682;-89
2023/01/08 03:21:45;;;;;;;11.00;8.23;;;2.10;99.90;;;;;;5036674;28;20634;-88
2023/01/08 03:24:27;;;;;;;13.27;8.50;;;2.00;99.90;;;;;;5051814;28;20244;-87
2023/01/08 03:26:59;;;;;;;11.23;8.03;;;2.00;99.90;;;;;;5059649;28;20164;-87
2023/01/08 03:29:26;;;;;;;13.03;8.60;;;2.00;99.90;;;;;;5056232;28;20183;-86
2023/01/08 03:31:56;;;;;;;10.17;8.33;;;2.00;99.90;;;;;;5060661;28;20301;-87
2023/01/08 03:34:24;;;;;;;10.13;8.47;;;2.10;99.90;;;;;;5072411;28;20170;-88
2023/01/08 03:36:54;;;;;;;10.30;8.50;;;1.90;99.90;;;;;;5072542;28;20203;-88
2023/01/08 03:39:32;;;;;;;10.97;8.37;;;1.80;99.90;;;;;;5046590;28;20166;-87
2023/01/08 03:42:03;;;;;;;10.60;8.07;;;1.80;99.90;;;;;;5053621;28;20638;-86
2023/01/08 03:44:29;;;;;;;10.13;7.93;;;1.90;99.90;;;;;;5056431;28;20153;-88
2023/01/08 03:46:56;;;;;;;10.53;8.40;;;1.90;99.90;;;;;;5039361;28;20205;-88
2023/01/08 03:49:25;;;;;;;10.47;8.33;;;1.80;99.90;;;;;;5055668;28;20538;-87
2023/01/08 03:51:51;;;;;;;9.30;7.40;;;1.70;99.90;;;;;;5057454;28;20577;-87
2023/01/08 03:54:22;;;;;;;11.13;8.60;;;1.60;99.90;;;;;;5054509;28;20179;-88
2023/01/08 03:56:48;;;;;;;8.37;7.20;;;1.50;99.90;;;;;;5058614;28;20242;-88
2023/01/08 03:59:14;;;;;;;9.13;6.93;;;1.50;99.90;;;;;;5045926;28;20207;-86
2023/01/08 04:01:41;;;;;;;9.00;7.50;;;1.50;99.90;;;;;;5055243;28;20169;-86
2023/01/08 04:04:07;;;;;;;10.17;8.30;;;1.50;99.90;;;;;;5055841;28;20256;-87
2023/01/08 04:06:33;;;;;;;9.63;7.47;;;1.50;99.90;;;;;;5038038;28;20574;-89
2023/01/08 04:08:59;;;;;;;10.77;7.83;;;1.50;99.90;;;;;;5037510;28;20227;-88
2023/01/08 04:11:25;;;;;;;10.77;8.10;;;1.40;99.90;;;;;;5037438;28;20206;-88
2023/01/08 04:13:51;;;;;;;9.60;7.07;;;1.40;99.90;;;;;;5058022;28;20174;-90
2023/01/08 04:16:20;;;;;;;11.60;8.53;;;1.50;99.90;;;;;;5056660;28;20236;-87
2023/01/08 04:18:46;;;;;;;8.67;7.33;;;1.40;99.90;;;;;;5064520;28;20186;-87
2023/01/08 04:21:12;;;;;;;11.17;8.37;;;1.40;99.90;;;;;;5077868;28;20170;-87
2023/01/08 04:23:37;;;;;;;12.53;8.17;;;1.30;99.90;;;;;;5070154;28;20587;-87
2023/01/08 04:26:07;;;;;;;12.00;7.77;;;1.30;99.90;;;;;;5039898;28;20554;-88
2023/01/08 04:28:34;;;;;;;13.00;8.47;;;1.20;99.90;;;;;;5057090;28;20174;-86
2023/01/08 04:31:03;;;;;;;10.37;8.00;;;1.20;99.90;;;;;;5061973;28;20204;-86
2023/01/08 04:33:29;;;;;;;11.13;8.73;;;1.20;99.90;;;;;;5063526;28;20171;-85
2023/01/08 04:35:55;;;;;;;11.07;8.40;;;1.20;99.90;;;;;;5055184;28;20182;-88
2023/01/08 04:38:21;;;;;;;10.50;8.03;;;1.20;99.90;;;;;;5053702;28;20173;-86
2023/01/08 04:40:47;;;;;;;10.93;7.87;;;1.20;99.90;;;;;;5059354;28;20177;-87
2023/01/08 04:43:12;;;;;;;10.27;8.27;;;1.20;99.90;;;;;;5060166;28;20178;-88
2023/01/08 04:45:38;;;;;;;8.27;7.27;;;1.20;99.90;;;;;;5055049;28;20176;-86
2023/01/08 04:48:04;;;;;;;10.80;8.07;;;1.20;99.90;;;;;;5055112;28;20197;-87
2023/01/08 04:50:30;;;;;;;13.40;7.67;;;1.20;99.90;;;;;;5057084;28;20181;-87
2023/01/08 04:52:59;;;;;;;10.90;7.93;;;1.20;99.90;;;;;;5063255;28;20257;-87
2023/01/08 04:55:24;;;;;;;8.70;7.43;;;1.10;99.90;;;;;;5061499;28;20207;-87
2023/01/08 04:57:50;;;;;;;7.73;6.47;;;1.10;99.90;;;;;;5074745;28;20641;-85
2023/01/08 05:00:16;;;;;;;9.40;7.17;;;1.00;99.90;;;;;;5059580;28;20210;-85
2023/01/08 05:02:42;;;;;;;8.30;6.67;;;0.90;99.90;;;;;;5039010;28;20218;-85
2023/01/08 05:05:08;;;;;;;9.63;7.43;;;1.00;99.90;;;;;;5040885;28;20694;-85
2023/01/08 05:07:34;;;;;;;8.70;6.67;;;1.00;99.90;;;;;;5041741;28;20193;-86
2023/01/08 05:10:00;;;;;;;11.07;6.77;;;1.00;99.90;;;;;;5046162;28;20176;-86
2023/01/08 05:12:26;;;;;;;7.50;6.50;;;1.00;99.90;;;;;;5061623;28;20703;-87
2023/01/08 05:14:52;;;;;;;7.00;6.30;;;1.00;99.90;;;;;;5056755;28;20231;-86
2023/01/08 05:17:17;;;;;;;7.97;6.47;;;1.00;99.90;;;;;;5056823;28;20207;-85
2023/01/08 05:19:43;;;;;;;7.83;6.73;;;1.00;99.90;;;;;;5062548;28;20173;-86
2023/01/08 05:22:09;;;;;;;7.77;6.17;;;1.00;99.90;;;;;;5070336;28;20181;-86
2023/01/08 05:24:35;;;;;;;9.23;6.97;;;1.10;99.90;;;;;;5046345;28;20178;-86
2023/01/08 05:27:01;;;;;;;9.03;6.80;;;1.10;99.90;;;;;;5056860;28;20200;-87
2023/01/08 05:29:27;;;;;;;7.63;6.27;;;1.10;99.90;;;;;;5038378;28;20180;-88
2023/01/08 05:31:52;;;;;;;7.23;6.23;;;1.00;99.90;;;;;;5056200;28;20205;-85
2023/01/08 05:34:18;;;;;;;7.80;6.27;;;1.00;99.90;;;;;;5045273;28;20177;-87
2023/01/08 05:36:44;;;;;;;6.27;5.67;;;0.90;99.90;;;;;;5061925;28;20178;-87
2023/01/08 05:39:10;;;;;;;7.10;6.20;;;0.90;99.90;;;;;;5056258;28;20645;-86
2023/01/08 05:41:36;;;;;;;8.07;6.60;;;0.80;99.90;;;;;;5038401;28;20232;-85
2023/01/08 05:44:01;;;;;;;7.60;6.20;;;0.80;99.90;;;;;;5056253;28;20608;-86
2023/01/08 05:46:27;;;;;;;8.63;6.63;;;0.80;99.90;;;;;;5055877;28;20181;-87
2023/01/08 05:48:53;;;;;;;8.47;6.47;;;0.90;99.90;;;;;;5056136;28;20173;-86
2023/01/08 05:51:19;;;;;;;8.17;6.27;;;0.90;99.90;;;;;;5056120;28;20213;-85
2023/01/08 05:53:45;;;;;;;7.07;5.83;;;0.90;99.90;;;;;;5056089;28;20175;-86
2023/01/08 05:56:11;;;;;;;7.60;5.77;;;1.00;99.90;;;;;;5055858;28;20214;-86
2023/01/08 05:58:37;;;;;;;8.03;6.23;;;0.90;99.90;;;;;;5057881;28;20200;-86
2023/01/08 06:01:09;;;;;;;9.07;6.83;;;0.90;99.90;;;;;;5040047;28;20569;-85
2023/01/08 06:03:36;;;;;;;8.60;7.10;;;1.00;99.90;;;;;;5061416;28;20177;-88
2023/01/08 06:06:04;;;;;;;8.50;6.20;;;1.00;99.90;;;;;;5060005;28;20232;-87
2023/01/08 06:08:30;;;;;;;7.90;6.47;;;1.00;99.90;;;;;;5059396;28;20164;-87
2023/01/08 06:11:00;;;;;;;6.63;6.03;;;0.90;99.90;;;;;;5067368;28;20229;-87
2023/01/08 06:13:27;;;;;;;10.50;7.50;;;1.00;99.90;;;;;;5038628;28;20544;-86
2023/01/08 06:15:53;;;;;;;9.93;7.43;;;1.00;99.90;;;;;;5037586;28;20229;-86
2023/01/08 06:18:19;;;;;;;8.73;7.40;;;1.00;99.90;;;;;;5039491;28;20186;-85
2023/01/08 06:20:45;;;;;;;9.07;7.70;;;1.00;99.90;;;;;;5047559;28;20254;-85
2023/01/08 06:23:11;;;;;;;10.03;7.23;;;1.00;99.90;;;;;;5057008;28;20534;-86
2023/01/08 06:25:37;;;;;;;11.30;6.87;;;1.00;99.90;;;;;;5055859;28;20177;-85
2023/01/08 06:28:04;;;;;;;7.60;5.73;;;1.00;99.90;;;;;;5055251;28;20188;-84
2023/01/08 06:30:30;;;;;;;10.03;7.00;;;1.00;99.90;;;;;;5055306;28;20181;-86
2023/01/08 06:32:57;;;;;;;7.53;6.00;;;1.00;99.90;;;;;;5055601;28;20178;-87
2023/01/08 06:35:23;;;;;;;8.20;6.90;;;1.00;99.90;;;;;;5055098;28;20513;-87
2023/01/08 06:37:49;;;;;;;7.30;5.97;;;1.10;99.90;;;;;;5055694;28;20173;-87
2023/01/08 06:40:15;;;;;;;7.17;5.47;;;1.00;99.90;;;;;;5058458;28;20181;-85
2023/01/08 06:42:42;;;;;;;7.30;5.60;;;0.90;99.90;;;;;;5041334;28;20188;-86
2023/01/08 06:45:09;;;;;;;9.03;6.27;;;1.00;99.90;;;;;;5039509;28;20267;-86
2023/01/08 06:47:35;;;;;;;7.30;5.90;;;1.00;99.90;;;;;;5055933;28;20197;-86
2023/01/08 06:50:01;;;;;;;8.90;6.77;;;1.10;99.90;;;;;;5038824;28;20235;-85
2023/01/08 06:52:30;;;;;;;13.37;6.33;;;1.00;99.90;;;;;;5046543;28;20292;-86
2023/01/08 06:54:56;;;;;;;8.97;6.20;;;1.00;99.90;;;;;;5050988;28;20182;-89
2023/01/08 06:57:22;;;;;;;10.63;6.90;;;1.10;99.90;;;;;;5048990;28;20176;-86
2023/01/08 06:59:48;;;;;;;8.60;6.53;;;1.10;99.90;;;;;;5038704;28;20183;-89
2023/01/08 07:02:15;;;;;;;10.57;6.73;;;1.20;99.90;;;;;;5036718;28;20181;-87
2023/01/08 07:04:41;;;;;;;12.03;6.27;;;1.30;99.90;;;;;;5054390;28;20179;-86
2023/01/08 07:07:08;;;;;;;10.00;6.50;;;1.30;99.90;;;;;;5038715;28;20188;-86
2023/01/08 07:09:34;;;;;;;9.07;7.07;;;1.30;99.90;;;;;;5057646;28;20178;-87
2023/01/08 07:12:00;;;;;;;9.23;6.73;;;1.40;99.90;;;;;;5053572;28;20224;-86
2023/01/08 07:14:26;;;;;;;13.50;7.47;;;1.40;99.90;;;;;;5055899;28;20308;-87
2023/01/08 07:16:52;;;;;;;9.97;7.13;;;1.30;99.90;;;;;;5037044;28;20269;-86
2023/01/08 07:19:18;;;;;;;10.33;7.87;;;1.30;99.90;;;;;;5036568;28;20173;-88
2023/01/08 07:21:44;;;;;;;12.90;8.80;;;1.40;99.90;;;;;;5054543;28;20811;-87
2023/01/08 07:24:10;;;;;;;10.53;8.13;;;1.50;99.90;;;;;;5055884;28;20258;-85
2023/01/08 07:26:38;;;;;;;11.63;8.40;;;1.50;99.90;;;;;;5037033;28;20209;-85
2023/01/08 07:29:04;;;;;;;9.67;7.50;;;1.50;99.90;;;;;;5054808;28;20629;-88
2023/01/08 07:31:30;;;;;;;14.33;8.30;;;1.50;99.90;;;;;;5053014;28;20217;-86
2023/01/08 07:33:55;;;;;;;10.47;7.60;;;1.50;99.90;;;;;;5057240;28;20171;-86
2023/01/08 07:36:23;;;;;;;14.93;8.77;;;1.50;99.90;;;;;;5059913;28;20182;-87
2023/01/08 07:38:49;;;;;;;9.33;7.13;;;1.60;99.90;;;;;;5062693;28;20173;-86
2023/01/08 07:41:17;;;;;;;10.07;7.40;;;1.70;99.90;;;;;;5038338;28;20276;-86
2023/01/08 07:43:43;;;;;;;10.03;7.07;;;1.80;99.90;;;;;;5040253;28;20261;-84
2023/01/08 07:46:09;;;;;;;8.63;7.73;;;1.80;99.90;;;;;;5064128;28;20204;-85
2023/01/08 07:48:35;;;;;;;8.30;6.50;;;1.80;99.90;;;;;;5049684;28;20298;-84
2023/01/08 07:51:03;;;;;;;8.77;6.77;;;1.90;99.90;;;;;;5070305;28;20201;-87
2023/01/08 07:53:29;;;;;;;7.60;6.00;;;1.90;99.90;;;;;;5059903;28;20206;-87
2023/01/08 07:56:03;;;;;;;7.83;6.70;;;2.00;99.90;;;;;;5057347;28;20235;-87
2023/01/08 07:58:29;;;;;;;10.67;8.30;;;2.10;99.90;;;;;;5042350;28;20181;-89
2023/01/08 08:00:56;;;;;;;8.77;7.07;;;2.00;99.90;;;;;;5037407;28;20177;-89
2023/01/08 08:03:22;;;;;;;8.17;6.10;;;2.10;99.90;;;;;;5037732;28;20193;-86
2023/01/08 08:05:48;;;;;;;8.40;7.20;;;2.00;99.90;;;;;;5055184;28;20212;-88
2023/01/08 08:08:16;;;;;;;9.30;7.40;;;2.00;99.90;;;;;;5037167;28;20189;-87
2023/01/08 08:10:42;;;;;;;9.03;6.40;;;2.10;99.90;;;;;;5054650;28;20179;-89
2023/01/08 08:13:09;;;;;;;7.97;6.93;;;2.10;99.90;;;;;;5057520;28;20188;-87
2023/01/08 08:15:36;;;;;;;9.33;6.97;;;2.10;99.90;;;;;;5069443;28;20231;-87
2023/01/08 08:18:02;;;;;;;12.53;7.10;;;2.10;99.90;;;;;;5055690;28;20640;-88
2023/01/08 08:20:28;;;;;;;12.77;8.07;;;2.20;99.90;;;;;;5055885;28;20179;-87
2023/01/08 08:23:04;;;;;;;15.17;7.43;;;2.30;99.90;;;;;;5076092;28;20169;-87
2023/01/08 08:25:30;;;;;;;8.93;6.97;;;2.50;99.90;;;;;;5055233;28;20174;-86
2023/01/08 08:28:00;;;;;;;10.10;6.50;;;2.40;99.90;;;;;;5055237;28;20241;-88
2023/01/08 08:30:30;;;;;;;10.60;7.73;;;2.30;99.90;;;;;;5054979;28;20184;-87
2023/01/08 08:32:59;;;;;;;14.87;8.57;;;2.40;99.90;;;;;;5055807;28;20193;-87
2023/01/08 08:35:25;;;;;;;13.40;7.40;;;2.50;99.90;;;;;;5059850;28;20174;-89
2023/01/08 08:37:51;;;;;;;13.67;8.43;;;2.50;99.90;;;;;;5079556;28;20171;-86
2023/01/08 08:40:16;;;;;;;16.10;7.80;;;2.60;99.90;;;;;;5061766;28;20174;-87
2023/01/08 08:42:42;;;;;;;11.83;7.50;;;2.80;99.90;;;;;;5080520;28;20174;-88
2023/01/08 08:45:09;;;;;;;12.17;7.47;;;2.90;99.90;;;;;;5081519;28;20478;-88
2023/01/08 08:47:35;;;;;;;8.83;6.77;;;2.90;99.90;;;;;;5089345;28;20181;-87
2023/01/08 08:50:01;;;;;;;10.90;7.03;;;3.10;99.90;;;;;;5097980;28;20229;-87
2023/01/08 08:52:28;;;;;;;8.87;6.37;;;3.00;99.90;;;;;;5067926;28;20235;-87
2023/01/08 08:54:54;;;;;;;9.37;6.60;;;3.20;99.90;;;;;;5063952;28;20173;-87
2023/01/08 08:57:22;;;;;;;9.07;6.90;;;3.30;99.90;;;;;;5060976;28;20189;-88
2023/01/08 08:59:48;;;;;;;9.20;7.13;;;3.40;99.90;;;;;;5061703;28;20696;-88
2023/01/08 09:02:14;;;;;;;12.67;9.20;;;3.40;99.90;;;;;;5078087;28;20174;-89
2023/01/08 09:04:40;;;;;;;11.60;8.00;;;3.40;99.90;;;;;;5078263;28;20166;-85
2023/01/08 09:07:05;;;;;;;10.73;8.37;;;3.50;99.90;;;;;;5088319;28;20173;-86
2023/01/08 09:09:31;;;;;;;8.97;6.90;;;3.60;99.90;;;;;;5078006;28;20629;-87
2023/01/08 09:11:58;;;;;;;11.07;7.93;;;3.60;99.90;;;;;;5060129;28;20214;-87
2023/01/08 09:14:24;;;;;;;11.03;8.07;;;3.70;99.90;;;;;;5077330;28;20234;-85
2023/01/08 09:16:50;;;;;;;8.60;7.70;;;3.80;99.90;;;;;;5067229;28;20167;-89
2023/01/08 09:19:16;;;;;;;9.97;8.57;;;3.80;99.90;;;;;;5063290;28;20288;-88
2023/01/08 09:21:42;;;;;;;13.47;9.57;;;3.80;99.90;;;;;;5061137;28;20273;-86
2023/01/08 09:24:08;;;;;;;12.50;10.50;;;3.70;99.90;;;;;;5080905;28;20201;-85
2023/01/08 09:26:34;;;;;;;16.97;11.53;;;3.60;99.90;;;;;;5088698;28;20166;-88
2023/01/08 09:28:59;;;;;;;17.50;11.60;;;3.50;99.90;;;;;;5061250;28;20199;-86
2023/01/08 09:31:26;;;;;;;14.73;11.30;;;3.50;99.90;;;;;;5078913;28;20198;-88
2023/01/08 09:33:51;;;;;;;16.60;10.17;;;3.40;99.90;;;;;;5077692;28;20894;-86
2023/01/08 09:36:18;;;;;;;10.97;9.37;;;3.30;99.90;;;;;;5079257;28;20178;-85
2023/01/08 09:38:44;;;;;;;13.70;9.97;;;3.30;99.90;;;;;;5089907;28;20171;-86
2023/01/08 09:41:20;;;;;;;11.60;9.70;;;3.20;99.90;;;;;;5098226;28;20278;-88
2023/01/08 09:43:50;;;;;;;12.10;9.53;;;3.20;99.90;;;;;;5091218;28;20646;-85
2023/01/08 09:46:18;;;;;;;13.50;10.20;;;3.30;99.90;;;;;;5078633;28;20168;-86
2023/01/08 09:48:45;;;;;;;12.27;10.13;;;3.40;99.90;;;;;;5089241;28;20193;-86
2023/01/08 09:51:17;;;;;;;14.30;9.77;;;3.40;99.90;;;;;;5060255;28;20209;-88
2023/01/08 09:53:43;;;;;;;13.13;9.67;;;3.40;99.90;;;;;;5059333;28;20593;-87
2023/01/08 09:56:17;;;;;;;14.00;9.53;;;3.50;99.90;;;;;;5060926;28;20269;-87
2023/01/08 09:58:55;;;;;;;11.97;9.27;;;3.50;99.90;;;;;;5075578;28;20267;-88
2023/01/08 10:01:27;;;;;;;11.20;9.23;;;3.60;99.90;;;;;;5038810;28;20182;-91
2023/01/08 10:04:15;;;;;;;13.00;9.20;;;3.70;99.90;;;;;;5023362;28;20188;-88
2023/01/08 10:06:49;;;;;;;12.30;9.20;;;3.90;99.90;;;;;;5046777;28;20204;-88
2023/01/08 10:09:15;;;;;;;11.50;9.00;;;3.80;99.90;;;;;;5039757;28;20172;-88
2023/01/08 10:11:49;;;;;;;11.87;8.83;;;4.00;99.90;;;;;;5022115;28;20214;-85
2023/01/08 10:14:28;;;;;;;10.07;8.40;;;4.10;99.90;;;;;;5021061;28;20321;-89
2023/01/08 10:17:17;;;;;;;11.50;8.47;;;4.10;99.90;;;;;;5036904;28;20241;-90
2023/01/08 10:19:44;;;;;;;11.53;8.80;;;4.10;99.90;;;;;;5027645;28;20188;-92
2023/01/08 10:22:20;;;;;;;11.63;7.77;;;4.10;99.90;;;;;;5020167;28;20194;-87
2023/01/08 10:24:45;;;;;;;10.20;7.70;;;4.20;99.90;;;;;;5039640;28;20163;-90
2023/01/08 10:27:19;;;;;;;10.03;7.47;;;4.10;99.90;;;;;;5037136;28;20247;-87
2023/01/08 10:29:45;;;;;;;9.17;7.17;;;4.10;99.90;;;;;;5044236;28;20169;-89
2023/01/08 10:32:45;;;;;;;7.70;6.87;;;4.10;99.90;;;;;;5022542;28;20208;-86
2023/01/08 10:35:20;;;;;;;7.20;6.50;;;4.20;99.90;;;;;;5008529;28;20232;-87
2023/01/08 10:37:46;;;;;;;8.23;6.37;;;4.30;99.90;;;;;;5025799;28;20215;-86
2023/01/08 10:40:28;;;;;;;10.30;8.20;;;4.30;99.90;;;;;;5019011;28;20176;-89
2023/01/08 10:42:57;;;;;;;6.63;6.00;;;4.40;99.90;;;;;;5019265;28;20631;-87
2023/01/08 10:45:25;;;;;;;6.43;5.67;;;4.30;99.90;;;;;;5021739;28;20176;-85
2023/01/08 10:47:56;;;;;;;7.93;6.73;;;4.40;99.90;;;;;;5040193;28;20655;-85
2023/01/08 10:50:25;;;;;;;8.37;6.67;;;4.50;99.90;;;;;;5071943;28;20168;-85
2023/01/08 10:52:54;;;;;;;7.03;6.30;;;4.50;99.90;;;;;;5046158;28;20212;-88
2023/01/08 10:55:30;;;;;;;10.10;6.67;;;4.60;99.90;;;;;;5038469;28;20177;-89
2023/01/08 10:58:09;;;;;;;6.23;5.63;;;4.60;99.90;;;;;;5034358;28;20164;-87
2023/01/08 11:00:36;;;;;;;5.83;5.23;;;4.60;99.90;;;;;;5039425;28;20162;-85
2023/01/08 11:03:25;;;;;;;7.13;5.53;;;4.50;99.90;;;;;;5038676;28;20188;-85
2023/01/08 11:05:51;;;;;;;7.53;6.10;;;4.60;99.90;;;;;;5022216;28;20209;-87
2023/01/08 11:08:20;;;;;;;6.43;5.40;;;4.80;99.90;;;;;;5044391;28;20180;-87
2023/01/08 11:11:00;;;;;;;7.77;5.90;;;4.80;99.90;;;;;;5017694;28;20176;-86
2023/01/08 11:13:26;;;;;;;6.57;5.50;;;4.90;99.90;;;;;;5034602;28;20306;-85
2023/01/08 11:16:05;;;;;;;7.33;5.80;;;5.00;99.90;;;;;;5035086;28;20222;-85
2023/01/08 11:18:41;;;;;;;8.20;6.20;;;5.00;99.90;;;;;;5034364;28;20175;-87
2023/01/08 11:21:09;;;;;;;8.27;5.33;;;4.90;99.90;;;;;;5017107;28;20250;-89
2023/01/08 11:23:35;;;;;;;6.83;5.63;;;4.80;99.90;;;;;;5021763;28;20230;-88
2023/01/08 11:26:20;;;;;;;8.37;6.33;;;4.80;99.90;;;;;;5041551;28;20176;-88
2023/01/08 11:29:06;;;;;;;6.77;6.07;;;4.70;99.90;;;;;;5017334;28;20188;-86
2023/01/08 11:31:54;;;;;;;7.07;6.30;;;4.80;99.90;;;;;;5016808;28;20223;-85
2023/01/08 11:34:58;;;;;;;7.03;6.10;;;4.90;99.90;;;;;;5034656;28;20169;-87
2023/01/08 11:37:32;;;;;;;7.23;6.00;;;5.00;99.90;;;;;;5033913;28;20196;-87
2023/01/08 11:39:58;;;;;;;6.73;5.63;;;5.10;99.90;;;;;;5034226;28;20156;-87
2023/01/08 11:42:30;;;;;;;7.23;6.40;;;5.20;99.90;;;;;;5036247;28;20599;-86
2023/01/08 11:45:31;;;;;;;8.07;5.97;;;5.30;99.90;;;;;;5016909;28;20246;-86
2023/01/08 11:48:30;;;;;;;8.63;5.53;;;5.50;99.90;;;;;;5018722;28;20196;-86
2023/01/08 11:51:18;;;;;;;6.20;5.57;;;5.50;99.90;;;;;;5021387;28;20207;-87
2023/01/08 11:54:26;;;;;;;8.13;5.83;;;5.60;99.90;;;;;;5038950;28;20175;-87
2023/01/08 11:57:10;;;;;;;9.90;5.93;;;5.60;99.90;;;;;;5029934;28;20207;-84
2023/01/08 12:00:03;;;;;;;6.67;5.63;;;5.70;99.90;;;;;;5016995;28;20535;-90
2023/01/08 12:02:54;;;;;;;6.07;5.37;;;5.80;99.90;;;;;;5034626;28;20176;-88
2023/01/08 12:05:25;;;;;;;7.73;5.60;;;5.90;99.90;;;;;;5031974;28;20159;-89
2023/01/08 12:08:21;;;;;;;7.17;5.27;;;6.10;99.90;;;;;;5036473;28;20183;-89
2023/01/08 12:11:26;;;;;;;6.47;5.17;;;6.30;99.90;;;;;;5037199;28;20169;-86
2023/01/08 12:14:20;;;;;;;5.70;5.07;;;6.40;99.90;;;;;;5037144;28;20177;-84
2023/01/08 12:17:18;;;;;;;5.73;5.10;;;6.60;99.90;;;;;;5035923;28;20736;-86
2023/01/08 12:20:23;;;;;;;5.40;4.90;;;6.80;99.90;;;;;;5036966;28;20181;-86
2023/01/08 12:23:18;;;;;;;6.10;5.17;;;6.90;99.90;;;;;;5034940;28;20210;-84
2023/01/08 12:26:13;;;;;;;6.47;5.17;;;6.90;99.90;;;;;;5053474;28;20159;-86
2023/01/08 12:29:05;;;;;;;6.23;5.60;;;7.00;99.90;;;;;;5034640;28;20245;-87
2023/01/08 12:31:49;;;;;;;6.33;5.10;;;7.00;99.90;;;;;;5036888;28;20245;-87
2023/01/08 12:34:45;;;;;;;6.73;5.47;;;7.10;99.90;;;;;;5035216;28;20205;-87
2023/01/08 12:37:38;;;;;;;6.53;5.27;;;7.00;99.90;;;;;;5034875;28;20264;-86
2023/01/08 12:40:34;;;;;;;6.40;5.67;;;7.00;99.90;;;;;;5035035;28;20195;-84
2023/01/08 12:43:12;;;;;;;5.87;5.27;;;7.00;99.90;;;;;;5022382;28;20217;-85
2023/01/08 12:45:45;;;;;;;6.77;5.40;;;7.10;99.90;;;;;;5036008;28;20206;-87
2023/01/08 12:48:19;;;;;;;7.27;5.17;;;7.20;99.90;;;;;;5060115;28;20197;-84
2023/01/08 12:51:02;;;;;;;7.53;5.70;;;7.30;99.90;;;;;;5044512;28;20172;-86
2023/01/08 12:53:46;;;;;;;5.80;4.90;;;7.30;99.90;;;;;;5053839;28;20194;-87
2023/01/08 12:56:26;;;;;;;6.63;5.53;;;7.50;99.90;;;;;;5057646;28;20224;-88
2023/01/08 12:59:13;;;;;;;7.50;6.33;;;7.60;99.90;;;;;;5054683;28;20166;-88
2023/01/08 13:02:01;;;;;;;7.87;5.77;;;7.50;99.90;;;;;;5058218;28;20177;-87
2023/01/08 13:04:27;;;;;;;6.30;5.47;;;7.40;99.90;;;;;;5051752;28;20185;-87
2023/01/08 13:07:03;;;;;;;9.20;5.57;;;7.40;99.90;;;;;;5051334;28;20170;-86
2023/01/08 13:09:29;;;;;;;7.87;5.50;;;7.40;99.90;;;;;;5050482;28;20168;-86